sensor_id;sensor_type;location;lat;lon;timestamp;P1;durP1;ratioP1;P2;durP2;ratioP2
11346;SDS011;5728;42.722;23.258;2022-12-18T00:00:42;8.50;;;6.50;;
11346;SDS011;5728;42.722;23.258;2022-12-18T00:03:10;7.17;;;4.37;;
11346;SDS011;5728;42.722;23.258;2022-12-18T00:05:45;8.07;;;5.03;;
11346;SDS011;5728;42.722;23.258;2022-12-18T00:08:12;9.20;;;6.80;;
11346;SDS011;5728;42.722;23.258;2022-12-18T00:10:39;10.13;;;6.60;;
11346;SDS011;5728;42.722;23.258;2022-12-18T00:13:06;8.57;;;6.40;;
11346;SDS011;5728;42.722;23.258;2022-12-18T00:15:33;9.90;;;6.57;;
11346;SDS011;5728;42.722;23.258;2022-12-18T00:17:59;10.60;;;7.57;;
11346;SDS011;5728;42.722;23.258;2022-12-18T00:20:26;10.70;;;6.83;;
11346;SDS011;5728;42.722;23.258;2022-12-18T00:22:55;10.77;;;7.20;;
11346;SDS011;5728;42.722;23.258;2022-12-18T00:25:22;11.77;;;7.10;;
11346;SDS011;5728;42.722;23.258;2022-12-18T00:27:49;12.27;;;7.53;;
11346;SDS011;5728;42.722;23.258;2022-12-18T00:30:15;7.80;;;5.63;;
11346;SDS011;5728;42.722;23.258;2022-12-18T00:32:42;9.17;;;6.63;;
11346;SDS011;5728;42.722;23.258;2022-12-18T00:35:09;11.40;;;6.70;;
11346;SDS011;5728;42.722;23.258;2022-12-18T00:37:36;10.97;;;7.07;;
11346;SDS011;5728;42.722;23.258;2022-12-18T00:40:05;9.90;;;6.73;;
11346;SDS011;5728;42.722;23.258;2022-12-18T00:42:32;10.53;;;6.70;;
11346;SDS011;5728;42.722;23.258;2022-12-18T00:45:16;9.43;;;6.77;;
11346;SDS011;5728;42.722;23.258;2022-12-18T00:47:43;9.83;;;6.37;;
11346;SDS011;5728;42.722;23.258;2022-12-18T00:50:10;9.10;;;7.10;;
11346;SDS011;5728;42.722;23.258;2022-12-18T00:52:37;11.37;;;6.93;;
11346;SDS011;5728;42.722;23.258;2022-12-18T00:55:09;9.00;;;6.73;;
11346;SDS011;5728;42.722;23.258;2022-12-18T00:57:36;11.77;;;8.23;;
11346;SDS011;5728;42.722;23.258;2022-12-18T01:00:04;14.67;;;8.07;;
11346;SDS011;5728;42.722;23.258;2022-12-18T01:02:32;7.20;;;5.93;;
11346;SDS011;5728;42.722;23.258;2022-12-18T01:04:59;12.63;;;8.07;;
11346;SDS011;5728;42.722;23.258;2022-12-18T01:07:26;14.03;;;8.50;;
11346;SDS011;5728;42.722;23.258;2022-12-18T01:09:52;11.37;;;8.00;;
11346;SDS011;5728;42.722;23.258;2022-12-18T01:12:21;12.10;;;8.37;;
11346;SDS011;5728;42.722;23.258;2022-12-18T01:14:47;11.77;;;8.50;;
11346;SDS011;5728;42.722;23.258;2022-12-18T01:17:14;13.13;;;8.93;;
11346;SDS011;5728;42.722;23.258;2022-12-18T01:19:41;12.40;;;8.30;;
11346;SDS011;5728;42.722;23.258;2022-12-18T01:22:07;11.77;;;8.63;;
11346;SDS011;5728;42.722;23.258;2022-12-18T01:24:34;9.33;;;6.57;;
11346;SDS011;5728;42.722;23.258;2022-12-18T01:27:01;13.40;;;9.10;;
11346;SDS011;5728;42.722;23.258;2022-12-18T01:29:29;12.50;;;8.43;;
11346;SDS011;5728;42.722;23.258;2022-12-18T01:31:56;13.80;;;8.77;;
11346;SDS011;5728;42.722;23.258;2022-12-18T01:34:23;13.00;;;8.93;;
11346;SDS011;5728;42.722;23.258;2022-12-18T01:36:50;12.13;;;7.50;;
11346;SDS011;5728;42.722;23.258;2022-12-18T01:39:17;12.17;;;8.47;;
11346;SDS011;5728;42.722;23.258;2022-12-18T01:41:44;9.77;;;6.80;;
11346;SDS011;5728;42.722;23.258;2022-12-18T01:47:23;11.60;;;7.60;;
11346;SDS011;5728;42.722;23.258;2022-12-18T01:49:53;11.87;;;8.10;;
11346;SDS011;5728;42.722;23.258;2022-12-18T01:52:21;10.30;;;7.13;;
11346;SDS011;5728;42.722;23.258;2022-12-18T01:54:50;12.00;;;7.57;;
11346;SDS011;5728;42.722;23.258;2022-12-18T01:57:18;12.50;;;7.77;;
11346;SDS011;5728;42.722;23.258;2022-12-18T01:59:45;10.57;;;7.37;;
11346;SDS011;5728;42.722;23.258;2022-12-18T02:02:17;10.63;;;7.50;;
11346;SDS011;5728;42.722;23.258;2022-12-18T02:04:45;11.53;;;7.57;;
11346;SDS011;5728;42.722;23.258;2022-12-18T02:07:17;9.10;;;6.27;;
11346;SDS011;5728;42.722;23.258;2022-12-18T02:09:52;14.13;;;7.33;;
11346;SDS011;5728;42.722;23.258;2022-12-18T02:12:25;9.90;;;7.07;;
11346;SDS011;5728;42.722;23.258;2022-12-18T02:14:58;9.57;;;6.77;;
11346;SDS011;5728;42.722;23.258;2022-12-18T02:17:30;9.20;;;6.33;;
11346;SDS011;5728;42.722;23.258;2022-12-18T02:20:05;10.93;;;7.10;;
11346;SDS011;5728;42.722;23.258;2022-12-18T02:22:42;9.13;;;6.47;;
11346;SDS011;5728;42.722;23.258;2022-12-18T02:25:21;5.73;;;4.77;;
11346;SDS011;5728;42.722;23.258;2022-12-18T02:27:57;8.47;;;6.67;;
11346;SDS011;5728;42.722;23.258;2022-12-18T02:30:27;9.53;;;6.93;;
11346;SDS011;5728;42.722;23.258;2022-12-18T02:32:58;13.07;;;7.37;;
11346;SDS011;5728;42.722;23.258;2022-12-18T02:35:28;11.87;;;6.10;;
11346;SDS011;5728;42.722;23.258;2022-12-18T02:37:56;9.77;;;7.03;;
11346;SDS011;5728;42.722;23.258;2022-12-18T02:40:25;7.60;;;6.80;;
11346;SDS011;5728;42.722;23.258;2022-12-18T02:42:53;9.87;;;6.83;;
11346;SDS011;5728;42.722;23.258;2022-12-18T02:45:21;11.57;;;6.47;;
11346;SDS011;5728;42.722;23.258;2022-12-18T02:47:48;9.03;;;6.23;;
11346;SDS011;5728;42.722;23.258;2022-12-18T02:50:17;6.17;;;4.97;;
11346;SDS011;5728;42.722;23.258;2022-12-18T02:52:51;11.13;;;7.67;;
11346;SDS011;5728;42.722;23.258;2022-12-18T02:55:29;8.23;;;6.00;;
11346;SDS011;5728;42.722;23.258;2022-12-18T02:58:09;9.70;;;7.07;;
11346;SDS011;5728;42.722;23.258;2022-12-18T03:00:44;7.50;;;5.37;;
11346;SDS011;5728;42.722;23.258;2022-12-18T03:03:18;11.20;;;6.93;;
11346;SDS011;5728;42.722;23.258;2022-12-18T03:05:51;14.73;;;7.03;;
11346;SDS011;5728;42.722;23.258;2022-12-18T03:08:23;8.53;;;6.80;;
11346;SDS011;5728;42.722;23.258;2022-12-18T03:10:53;9.87;;;6.90;;
11346;SDS011;5728;42.722;23.258;2022-12-18T03:13:26;10.80;;;7.10;;
11346;SDS011;5728;42.722;23.258;2022-12-18T03:15:59;10.83;;;7.27;;
11346;SDS011;5728;42.722;23.258;2022-12-18T03:18:29;8.67;;;5.83;;
11346;SDS011;5728;42.722;23.258;2022-12-18T03:21:02;7.70;;;6.03;;
11346;SDS011;5728;42.722;23.258;2022-12-18T03:23:33;8.63;;;6.13;;
11346;SDS011;5728;42.722;23.258;2022-12-18T03:26:05;8.70;;;6.07;;
11346;SDS011;5728;42.722;23.258;2022-12-18T03:28:36;10.03;;;5.73;;
11346;SDS011;5728;42.722;23.258;2022-12-18T03:31:08;8.70;;;6.10;;
11346;SDS011;5728;42.722;23.258;2022-12-18T03:33:38;8.97;;;5.50;;
11346;SDS011;5728;42.722;23.258;2022-12-18T03:36:08;8.37;;;5.70;;
11346;SDS011;5728;42.722;23.258;2022-12-18T03:38:35;8.93;;;6.03;;
11346;SDS011;5728;42.722;23.258;2022-12-18T03:41:03;7.03;;;5.17;;
11346;SDS011;5728;42.722;23.258;2022-12-18T03:43:40;8.50;;;6.17;;
11346;SDS011;5728;42.722;23.258;2022-12-18T03:46:17;10.70;;;7.07;;
11346;SDS011;5728;42.722;23.258;2022-12-18T03:48:54;8.10;;;5.50;;
11346;SDS011;5728;42.722;23.258;2022-12-18T03:51:27;8.70;;;6.23;;
11346;SDS011;5728;42.722;23.258;2022-12-18T03:54:01;8.87;;;6.03;;
11346;SDS011;5728;42.722;23.258;2022-12-18T03:56:31;12.23;;;7.47;;
11346;SDS011;5728;42.722;23.258;2022-12-18T03:59:02;11.73;;;6.90;;
11346;SDS011;5728;42.722;23.258;2022-12-18T04:01:34;11.53;;;7.60;;
11346;SDS011;5728;42.722;23.258;2022-12-18T04:04:04;9.50;;;6.93;;
11346;SDS011;5728;42.722;23.258;2022-12-18T04:06:34;10.23;;;6.97;;
11346;SDS011;5728;42.722;23.258;2022-12-18T04:09:02;11.90;;;8.07;;
11346;SDS011;5728;42.722;23.258;2022-12-18T04:11:31;12.43;;;8.47;;
11346;SDS011;5728;42.722;23.258;2022-12-18T04:13:57;13.67;;;8.03;;
11346;SDS011;5728;42.722;23.258;2022-12-18T04:16:25;14.97;;;8.73;;
11346;SDS011;5728;42.722;23.258;2022-12-18T04:18:53;13.03;;;7.73;;
11346;SDS011;5728;42.722;23.258;2022-12-18T04:21:20;6.77;;;5.83;;
11346;SDS011;5728;42.722;23.258;2022-12-18T04:23:47;13.80;;;7.87;;
11346;SDS011;5728;42.722;23.258;2022-12-18T04:26:14;14.33;;;8.00;;
11346;SDS011;5728;42.722;23.258;2022-12-18T04:28:41;12.80;;;7.77;;
11346;SDS011;5728;42.722;23.258;2022-12-18T04:31:08;14.80;;;8.67;;
11346;SDS011;5728;42.722;23.258;2022-12-18T04:33:35;15.20;;;10.03;;
11346;SDS011;5728;42.722;23.258;2022-12-18T04:36:03;18.93;;;9.63;;
11346;SDS011;5728;42.722;23.258;2022-12-18T04:38:30;16.77;;;9.73;;
11346;SDS011;5728;42.722;23.258;2022-12-18T04:40:57;15.23;;;9.53;;
11346;SDS011;5728;42.722;23.258;2022-12-18T04:43:24;15.73;;;9.70;;
11346;SDS011;5728;42.722;23.258;2022-12-18T04:45:50;15.30;;;9.47;;
11346;SDS011;5728;42.722;23.258;2022-12-18T04:48:17;15.30;;;10.23;;
11346;SDS011;5728;42.722;23.258;2022-12-18T04:50:46;17.90;;;9.37;;
11346;SDS011;5728;42.722;23.258;2022-12-18T04:53:14;14.90;;;9.47;;
11346;SDS011;5728;42.722;23.258;2022-12-18T04:55:41;17.90;;;10.30;;
11346;SDS011;5728;42.722;23.258;2022-12-18T04:58:08;12.73;;;7.50;;
11346;SDS011;5728;42.722;23.258;2022-12-18T05:00:35;17.90;;;10.90;;
11346;SDS011;5728;42.722;23.258;2022-12-18T05:03:01;13.53;;;7.93;;
11346;SDS011;5728;42.722;23.258;2022-12-18T05:05:28;17.30;;;9.87;;
11346;SDS011;5728;42.722;23.258;2022-12-18T05:07:55;16.40;;;8.90;;
11346;SDS011;5728;42.722;23.258;2022-12-18T05:10:23;20.10;;;11.97;;
11346;SDS011;5728;42.722;23.258;2022-12-18T05:12:50;17.70;;;9.50;;
11346;SDS011;5728;42.722;23.258;2022-12-18T05:15:26;16.60;;;10.27;;
11346;SDS011;5728;42.722;23.258;2022-12-18T05:17:54;18.47;;;11.13;;
11346;SDS011;5728;42.722;23.258;2022-12-18T05:20:20;16.20;;;10.50;;
11346;SDS011;5728;42.722;23.258;2022-12-18T05:22:47;16.10;;;10.43;;
11346;SDS011;5728;42.722;23.258;2022-12-18T05:25:14;16.53;;;10.00;;
11346;SDS011;5728;42.722;23.258;2022-12-18T05:27:42;14.67;;;9.87;;
11346;SDS011;5728;42.722;23.258;2022-12-18T05:30:10;19.17;;;10.63;;
11346;SDS011;5728;42.722;23.258;2022-12-18T05:32:37;18.90;;;11.10;;
11346;SDS011;5728;42.722;23.258;2022-12-18T05:35:05;17.70;;;10.60;;
11346;SDS011;5728;42.722;23.258;2022-12-18T05:37:34;12.43;;;8.67;;
11346;SDS011;5728;42.722;23.258;2022-12-18T05:40:01;16.70;;;9.40;;
11346;SDS011;5728;42.722;23.258;2022-12-18T05:42:27;18.43;;;11.83;;
11346;SDS011;5728;42.722;23.258;2022-12-18T05:44:56;18.17;;;10.67;;
11346;SDS011;5728;42.722;23.258;2022-12-18T05:47:22;15.23;;;9.17;;
11346;SDS011;5728;42.722;23.258;2022-12-18T05:49:50;19.40;;;10.93;;
11346;SDS011;5728;42.722;23.258;2022-12-18T05:52:16;16.67;;;11.13;;
11346;SDS011;5728;42.722;23.258;2022-12-18T05:54:43;18.77;;;11.13;;
11346;SDS011;5728;42.722;23.258;2022-12-18T05:57:10;17.07;;;10.20;;
11346;SDS011;5728;42.722;23.258;2022-12-18T05:59:36;17.47;;;10.67;;
11346;SDS011;5728;42.722;23.258;2022-12-18T06:02:05;17.60;;;10.20;;
11346;SDS011;5728;42.722;23.258;2022-12-18T06:04:31;17.67;;;11.03;;
11346;SDS011;5728;42.722;23.258;2022-12-18T06:06:58;24.27;;;12.70;;
11346;SDS011;5728;42.722;23.258;2022-12-18T06:09:25;14.40;;;7.23;;
11346;SDS011;5728;42.722;23.258;2022-12-18T06:11:52;17.23;;;11.10;;
11346;SDS011;5728;42.722;23.258;2022-12-18T06:14:19;17.70;;;11.17;;
11346;SDS011;5728;42.722;23.258;2022-12-18T06:16:46;17.00;;;10.03;;
11346;SDS011;5728;42.722;23.258;2022-12-18T06:19:15;17.10;;;10.30;;
11346;SDS011;5728;42.722;23.258;2022-12-18T06:21:42;17.30;;;10.60;;
11346;SDS011;5728;42.722;23.258;2022-12-18T06:24:09;18.07;;;10.47;;
11346;SDS011;5728;42.722;23.258;2022-12-18T06:26:36;21.53;;;11.80;;
11346;SDS011;5728;42.722;23.258;2022-12-18T06:29:06;16.10;;;10.47;;
11346;SDS011;5728;42.722;23.258;2022-12-18T06:31:33;21.53;;;11.60;;
11346;SDS011;5728;42.722;23.258;2022-12-18T06:34:01;20.77;;;11.70;;
11346;SDS011;5728;42.722;23.258;2022-12-18T06:36:30;21.33;;;11.53;;
11346;SDS011;5728;42.722;23.258;2022-12-18T06:38:57;19.13;;;10.53;;
11346;SDS011;5728;42.722;23.258;2022-12-18T06:41:24;16.53;;;10.33;;
11346;SDS011;5728;42.722;23.258;2022-12-18T06:43:51;18.47;;;10.23;;
11346;SDS011;5728;42.722;23.258;2022-12-18T06:46:17;17.53;;;11.27;;
11346;SDS011;5728;42.722;23.258;2022-12-18T06:48:46;20.03;;;10.73;;
11346;SDS011;5728;42.722;23.258;2022-12-18T06:51:15;14.73;;;9.47;;
11346;SDS011;5728;42.722;23.258;2022-12-18T06:53:44;14.97;;;9.30;;
11346;SDS011;5728;42.722;23.258;2022-12-18T06:56:10;13.47;;;9.43;;
11346;SDS011;5728;42.722;23.258;2022-12-18T06:58:38;15.90;;;9.70;;
11346;SDS011;5728;42.722;23.258;2022-12-18T07:01:07;16.33;;;9.87;;
11346;SDS011;5728;42.722;23.258;2022-12-18T07:03:35;22.77;;;11.83;;
11346;SDS011;5728;42.722;23.258;2022-12-18T07:06:01;20.40;;;11.77;;
11346;SDS011;5728;42.722;23.258;2022-12-18T07:08:29;14.57;;;9.93;;
11346;SDS011;5728;42.722;23.258;2022-12-18T07:10:57;20.53;;;12.17;;
11346;SDS011;5728;42.722;23.258;2022-12-18T07:13:24;16.20;;;11.00;;
11346;SDS011;5728;42.722;23.258;2022-12-18T07:15:51;21.40;;;12.27;;
11346;SDS011;5728;42.722;23.258;2022-12-18T07:18:18;18.20;;;10.73;;
11346;SDS011;5728;42.722;23.258;2022-12-18T07:20:45;21.47;;;12.43;;
11346;SDS011;5728;42.722;23.258;2022-12-18T07:23:12;17.73;;;10.13;;
11346;SDS011;5728;42.722;23.258;2022-12-18T07:25:38;14.40;;;10.23;;
11346;SDS011;5728;42.722;23.258;2022-12-18T07:28:07;20.63;;;13.27;;
11346;SDS011;5728;42.722;23.258;2022-12-18T07:30:33;24.33;;;12.80;;
11346;SDS011;5728;42.722;23.258;2022-12-18T07:33:03;20.47;;;12.13;;
11346;SDS011;5728;42.722;23.258;2022-12-18T07:35:30;25.30;;;14.00;;
11346;SDS011;5728;42.722;23.258;2022-12-18T07:37:59;24.23;;;14.03;;
11346;SDS011;5728;42.722;23.258;2022-12-18T07:40:26;25.63;;;13.37;;
11346;SDS011;5728;42.722;23.258;2022-12-18T07:42:53;23.10;;;14.23;;
11346;SDS011;5728;42.722;23.258;2022-12-18T07:45:21;23.50;;;13.00;;
11346;SDS011;5728;42.722;23.258;2022-12-18T07:47:47;23.60;;;13.93;;
11346;SDS011;5728;42.722;23.258;2022-12-18T07:50:14;24.63;;;15.60;;
11346;SDS011;5728;42.722;23.258;2022-12-18T07:52:41;21.73;;;13.57;;
11346;SDS011;5728;42.722;23.258;2022-12-18T07:55:08;12.90;;;8.37;;
11346;SDS011;5728;42.722;23.258;2022-12-18T07:57:35;22.17;;;14.33;;
11346;SDS011;5728;42.722;23.258;2022-12-18T08:00:02;18.03;;;10.23;;
11346;SDS011;5728;42.722;23.258;2022-12-18T08:02:32;21.13;;;12.47;;
11346;SDS011;5728;42.722;23.258;2022-12-18T08:04:59;21.67;;;13.97;;
11346;SDS011;5728;42.722;23.258;2022-12-18T08:07:25;17.03;;;10.43;;
11346;SDS011;5728;42.722;23.258;2022-12-18T08:09:53;17.00;;;11.30;;
11346;SDS011;5728;42.722;23.258;2022-12-18T08:12:19;17.07;;;9.33;;
11346;SDS011;5728;42.722;23.258;2022-12-18T08:14:46;18.43;;;12.03;;
11346;SDS011;5728;42.722;23.258;2022-12-18T08:17:13;23.97;;;14.40;;
11346;SDS011;5728;42.722;23.258;2022-12-18T08:19:41;23.90;;;12.70;;
11346;SDS011;5728;42.722;23.258;2022-12-18T08:22:08;15.70;;;9.97;;
11346;SDS011;5728;42.722;23.258;2022-12-18T08:24:35;23.70;;;14.67;;
11346;SDS011;5728;42.722;23.258;2022-12-18T08:27:02;14.50;;;10.23;;
11346;SDS011;5728;42.722;23.258;2022-12-18T08:29:29;23.90;;;14.40;;
11346;SDS011;5728;42.722;23.258;2022-12-18T08:31:57;25.23;;;13.40;;
11346;SDS011;5728;42.722;23.258;2022-12-18T08:34:24;21.63;;;11.17;;
11346;SDS011;5728;42.722;23.258;2022-12-18T08:36:52;18.70;;;12.57;;
11346;SDS011;5728;42.722;23.258;2022-12-18T08:39:18;28.73;;;15.27;;
11346;SDS011;5728;42.722;23.258;2022-12-18T08:41:45;26.03;;;15.70;;
11346;SDS011;5728;42.722;23.258;2022-12-18T08:44:32;16.40;;;9.97;;
11346;SDS011;5728;42.722;23.258;2022-12-18T08:47:04;16.50;;;11.00;;
11346;SDS011;5728;42.722;23.258;2022-12-18T08:49:31;12.77;;;8.30;;
11346;SDS011;5728;42.722;23.258;2022-12-18T08:52:00;20.17;;;10.93;;
11346;SDS011;5728;42.722;23.258;2022-12-18T08:54:28;16.00;;;9.97;;
11346;SDS011;5728;42.722;23.258;2022-12-18T08:56:55;14.10;;;8.73;;
11346;SDS011;5728;42.722;23.258;2022-12-18T08:59:22;14.67;;;10.10;;
11346;SDS011;5728;42.722;23.258;2022-12-18T09:01:49;15.03;;;10.77;;
11346;SDS011;5728;42.722;23.258;2022-12-18T09:04:16;17.80;;;10.30;;
11346;SDS011;5728;42.722;23.258;2022-12-18T09:06:43;15.90;;;10.73;;
11346;SDS011;5728;42.722;23.258;2022-12-18T09:09:12;17.33;;;10.60;;
11346;SDS011;5728;42.722;23.258;2022-12-18T09:11:38;14.33;;;8.37;;
11346;SDS011;5728;42.722;23.258;2022-12-18T09:14:05;18.57;;;10.57;;
11346;SDS011;5728;42.722;23.258;2022-12-18T09:16:33;16.67;;;11.17;;
11346;SDS011;5728;42.722;23.258;2022-12-18T09:19:00;18.17;;;10.20;;
11346;SDS011;5728;42.722;23.258;2022-12-18T09:21:28;17.70;;;9.93;;
11346;SDS011;5728;42.722;23.258;2022-12-18T09:23:57;15.70;;;9.50;;
11346;SDS011;5728;42.722;23.258;2022-12-18T09:26:26;15.50;;;9.63;;
11346;SDS011;5728;42.722;23.258;2022-12-18T09:28:53;20.57;;;9.47;;
11346;SDS011;5728;42.722;23.258;2022-12-18T09:31:21;17.30;;;10.27;;
11346;SDS011;5728;42.722;23.258;2022-12-18T09:33:49;17.00;;;9.60;;
11346;SDS011;5728;42.722;23.258;2022-12-18T09:36:17;17.53;;;10.73;;
11346;SDS011;5728;42.722;23.258;2022-12-18T09:38:44;16.07;;;9.57;;
11346;SDS011;5728;42.722;23.258;2022-12-18T09:41:15;20.27;;;11.80;;
11346;SDS011;5728;42.722;23.258;2022-12-18T09:43:55;18.90;;;10.00;;
11346;SDS011;5728;42.722;23.258;2022-12-18T09:46:26;16.10;;;9.57;;
11346;SDS011;5728;42.722;23.258;2022-12-18T09:48:56;17.57;;;9.83;;
11346;SDS011;5728;42.722;23.258;2022-12-18T09:51:26;16.10;;;9.43;;
11346;SDS011;5728;42.722;23.258;2022-12-18T09:54:00;14.30;;;8.47;;
11346;SDS011;5728;42.722;23.258;2022-12-18T09:56:31;12.63;;;7.13;;
11346;SDS011;5728;42.722;23.258;2022-12-18T09:59:05;13.17;;;8.63;;
11346;SDS011;5728;42.722;23.258;2022-12-18T10:01:33;14.80;;;10.10;;
11346;SDS011;5728;42.722;23.258;2022-12-18T10:03:59;13.63;;;8.47;;
11346;SDS011;5728;42.722;23.258;2022-12-18T10:06:27;16.70;;;10.10;;
11346;SDS011;5728;42.722;23.258;2022-12-18T10:09:01;15.70;;;7.83;;
11346;SDS011;5728;42.722;23.258;2022-12-18T10:11:38;23.73;;;11.13;;
11346;SDS011;5728;42.722;23.258;2022-12-18T10:14:12;16.27;;;9.43;;
11346;SDS011;5728;42.722;23.258;2022-12-18T10:16:50;16.43;;;10.13;;
11346;SDS011;5728;42.722;23.258;2022-12-18T10:19:26;17.00;;;9.93;;
11346;SDS011;5728;42.722;23.258;2022-12-18T10:22:03;14.40;;;8.60;;
11346;SDS011;5728;42.722;23.258;2022-12-18T10:24:42;11.47;;;7.17;;
11346;SDS011;5728;42.722;23.258;2022-12-18T10:27:17;17.30;;;10.00;;
11346;SDS011;5728;42.722;23.258;2022-12-18T10:29:53;15.53;;;10.53;;
11346;SDS011;5728;42.722;23.258;2022-12-18T10:32:21;17.47;;;9.70;;
11346;SDS011;5728;42.722;23.258;2022-12-18T10:34:51;16.33;;;8.47;;
11346;SDS011;5728;42.722;23.258;2022-12-18T10:37:21;16.00;;;9.33;;
11346;SDS011;5728;42.722;23.258;2022-12-18T10:40:04;17.53;;;9.37;;
11346;SDS011;5728;42.722;23.258;2022-12-18T10:42:34;21.93;;;10.83;;
11346;SDS011;5728;42.722;23.258;2022-12-18T10:45:03;15.10;;;9.33;;
11346;SDS011;5728;42.722;23.258;2022-12-18T10:47:36;15.13;;;10.20;;
11346;SDS011;5728;42.722;23.258;2022-12-18T10:50:11;15.87;;;9.03;;
11346;SDS011;5728;42.722;23.258;2022-12-18T10:52:52;17.47;;;9.37;;
11346;SDS011;5728;42.722;23.258;2022-12-18T10:55:21;15.47;;;8.43;;
11346;SDS011;5728;42.722;23.258;2022-12-18T10:57:48;13.10;;;8.07;;
11346;SDS011;5728;42.722;23.258;2022-12-18T11:00:25;14.13;;;9.27;;
11346;SDS011;5728;42.722;23.258;2022-12-18T11:02:54;12.40;;;7.83;;
11346;SDS011;5728;42.722;23.258;2022-12-18T11:05:25;17.20;;;10.53;;
11346;SDS011;5728;42.722;23.258;2022-12-18T11:07:54;18.20;;;12.23;;
11346;SDS011;5728;42.722;23.258;2022-12-18T11:10:22;15.63;;;7.57;;
11346;SDS011;5728;42.722;23.258;2022-12-18T11:12:53;15.30;;;9.47;;
11346;SDS011;5728;42.722;23.258;2022-12-18T11:15:21;17.73;;;10.73;;
11346;SDS011;5728;42.722;23.258;2022-12-18T11:17:52;16.43;;;9.87;;
11346;SDS011;5728;42.722;23.258;2022-12-18T11:20:27;17.77;;;10.20;;
11346;SDS011;5728;42.722;23.258;2022-12-18T11:22:58;16.30;;;7.13;;
11346;SDS011;5728;42.722;23.258;2022-12-18T11:25:26;13.97;;;8.87;;
11346;SDS011;5728;42.722;23.258;2022-12-18T11:27:54;20.17;;;10.13;;
11346;SDS011;5728;42.722;23.258;2022-12-18T11:30:23;17.33;;;9.87;;
11346;SDS011;5728;42.722;23.258;2022-12-18T11:32:54;17.10;;;9.73;;
11346;SDS011;5728;42.722;23.258;2022-12-18T11:35:25;16.57;;;9.37;;
11346;SDS011;5728;42.722;23.258;2022-12-18T11:38:04;12.93;;;8.30;;
11346;SDS011;5728;42.722;23.258;2022-12-18T11:40:40;15.80;;;9.53;;
11346;SDS011;5728;42.722;23.258;2022-12-18T11:43:10;17.30;;;9.47;;
11346;SDS011;5728;42.722;23.258;2022-12-18T11:45:45;19.50;;;9.40;;
11346;SDS011;5728;42.722;23.258;2022-12-18T11:48:17;15.20;;;10.37;;
11346;SDS011;5728;42.722;23.258;2022-12-18T11:50:50;14.93;;;9.50;;
11346;SDS011;5728;42.722;23.258;2022-12-18T11:53:18;15.83;;;9.67;;
11346;SDS011;5728;42.722;23.258;2022-12-18T11:55:49;15.37;;;9.33;;
11346;SDS011;5728;42.722;23.258;2022-12-18T11:58:28;17.27;;;10.97;;
11346;SDS011;5728;42.722;23.258;2022-12-18T12:01:10;18.33;;;11.10;;
11346;SDS011;5728;42.722;23.258;2022-12-18T12:06:58;16.77;;;10.27;;
11346;SDS011;5728;42.722;23.258;2022-12-18T12:09:37;14.60;;;9.47;;
11346;SDS011;5728;42.722;23.258;2022-12-18T12:12:14;15.30;;;9.40;;
11346;SDS011;5728;42.722;23.258;2022-12-18T12:14:54;15.20;;;9.33;;
11346;SDS011;5728;42.722;23.258;2022-12-18T12:17:33;19.17;;;9.90;;
11346;SDS011;5728;42.722;23.258;2022-12-18T12:20:10;15.27;;;9.80;;
11346;SDS011;5728;42.722;23.258;2022-12-18T12:22:46;17.83;;;10.23;;
11346;SDS011;5728;42.722;23.258;2022-12-18T12:25:25;23.63;;;10.17;;
11346;SDS011;5728;42.722;23.258;2022-12-18T12:28:02;17.60;;;10.60;;
11346;SDS011;5728;42.722;23.258;2022-12-18T12:30:41;17.07;;;10.63;;
11346;SDS011;5728;42.722;23.258;2022-12-18T12:33:19;20.53;;;10.63;;
11346;SDS011;5728;42.722;23.258;2022-12-18T12:35:56;17.60;;;10.80;;
11346;SDS011;5728;42.722;23.258;2022-12-18T12:38:31;19.73;;;10.83;;
11346;SDS011;5728;42.722;23.258;2022-12-18T12:41:03;21.70;;;10.33;;
11346;SDS011;5728;42.722;23.258;2022-12-18T12:43:52;15.57;;;9.13;;
11346;SDS011;5728;42.722;23.258;2022-12-18T12:46:21;15.67;;;10.00;;
11346;SDS011;5728;42.722;23.258;2022-12-18T12:48:51;21.50;;;10.47;;
11346;SDS011;5728;42.722;23.258;2022-12-18T12:51:21;16.53;;;9.33;;
11346;SDS011;5728;42.722;23.258;2022-12-18T12:53:51;13.80;;;9.13;;
11346;SDS011;5728;42.722;23.258;2022-12-18T12:56:20;14.73;;;9.13;;
11346;SDS011;5728;42.722;23.258;2022-12-18T12:58:56;17.70;;;10.27;;
11346;SDS011;5728;42.722;23.258;2022-12-18T13:01:28;19.63;;;10.47;;
11346;SDS011;5728;42.722;23.258;2022-12-18T13:04:07;15.83;;;10.03;;
11346;SDS011;5728;42.722;23.258;2022-12-18T13:06:43;16.77;;;8.93;;
11346;SDS011;5728;42.722;23.258;2022-12-18T13:09:16;16.50;;;10.00;;
11346;SDS011;5728;42.722;23.258;2022-12-18T13:11:43;14.97;;;8.70;;
11346;SDS011;5728;42.722;23.258;2022-12-18T13:14:29;16.33;;;9.87;;
11346;SDS011;5728;42.722;23.258;2022-12-18T13:20:05;17.33;;;10.67;;
11346;SDS011;5728;42.722;23.258;2022-12-18T13:22:35;17.60;;;9.77;;
11346;SDS011;5728;42.722;23.258;2022-12-18T13:28:00;18.13;;;10.70;;
11346;SDS011;5728;42.722;23.258;2022-12-18T13:36:23;18.17;;;10.47;;
11346;SDS011;5728;42.722;23.258;2022-12-18T13:39:09;28.60;;;11.13;;
11346;SDS011;5728;42.722;23.258;2022-12-18T13:48:04;15.47;;;9.70;;
11346;SDS011;5728;42.722;23.258;2022-12-18T13:50:31;15.33;;;9.50;;
11346;SDS011;5728;42.722;23.258;2022-12-18T13:53:02;14.30;;;8.00;;
11346;SDS011;5728;42.722;23.258;2022-12-18T13:55:32;18.20;;;9.57;;
11346;SDS011;5728;42.722;23.258;2022-12-18T13:58:03;11.23;;;7.50;;
11346;SDS011;5728;42.722;23.258;2022-12-18T14:00:31;17.17;;;9.77;;
11346;SDS011;5728;42.722;23.258;2022-12-18T14:02:58;15.53;;;9.10;;
11346;SDS011;5728;42.722;23.258;2022-12-18T14:05:26;13.57;;;8.57;;
11346;SDS011;5728;42.722;23.258;2022-12-18T14:07:55;10.60;;;7.63;;
11346;SDS011;5728;42.722;23.258;2022-12-18T14:10:28;13.57;;;8.43;;
11346;SDS011;5728;42.722;23.258;2022-12-18T14:13:05;16.60;;;9.63;;
11346;SDS011;5728;42.722;23.258;2022-12-18T14:15:34;14.70;;;8.60;;
11346;SDS011;5728;42.722;23.258;2022-12-18T14:18:09;18.63;;;9.80;;
11346;SDS011;5728;42.722;23.258;2022-12-18T14:20:47;13.73;;;8.93;;
11346;SDS011;5728;42.722;23.258;2022-12-18T14:23:25;27.37;;;9.57;;
11346;SDS011;5728;42.722;23.258;2022-12-18T14:25:55;17.17;;;9.13;;
11346;SDS011;5728;42.722;23.258;2022-12-18T14:28:22;23.00;;;11.20;;
11346;SDS011;5728;42.722;23.258;2022-12-18T14:30:50;15.10;;;8.63;;
11346;SDS011;5728;42.722;23.258;2022-12-18T14:33:18;15.70;;;9.10;;
11346;SDS011;5728;42.722;23.258;2022-12-18T14:35:52;12.97;;;7.53;;
11346;SDS011;5728;42.722;23.258;2022-12-18T14:38:22;14.17;;;8.67;;
11346;SDS011;5728;42.722;23.258;2022-12-18T14:40:55;11.93;;;6.77;;
11346;SDS011;5728;42.722;23.258;2022-12-18T14:43:24;20.17;;;8.17;;
11346;SDS011;5728;42.722;23.258;2022-12-18T14:45:52;10.60;;;7.60;;
11346;SDS011;5728;42.722;23.258;2022-12-18T14:48:20;16.73;;;8.83;;
11346;SDS011;5728;42.722;23.258;2022-12-18T14:50:54;9.80;;;6.33;;
11346;SDS011;5728;42.722;23.258;2022-12-18T14:53:23;10.43;;;6.60;;
11346;SDS011;5728;42.722;23.258;2022-12-18T14:56:00;10.33;;;6.47;;
11346;SDS011;5728;42.722;23.258;2022-12-18T14:58:28;12.17;;;7.97;;
11346;SDS011;5728;42.722;23.258;2022-12-18T15:00:55;14.67;;;7.97;;
11346;SDS011;5728;42.722;23.258;2022-12-18T15:03:22;15.97;;;8.70;;
11346;SDS011;5728;42.722;23.258;2022-12-18T15:05:49;15.57;;;7.43;;
11346;SDS011;5728;42.722;23.258;2022-12-18T15:14:29;12.07;;;7.53;;
11346;SDS011;5728;42.722;23.258;2022-12-18T15:16:58;10.73;;;7.07;;